Mestre Horacio — CUQG6 — position and weather

sailwx.info

Track history (hours):
 
Tides and Currents Weather Stations Pressure Air Temp Water Temp Dewpoint Dewpoint Depression Visibility Wind Speed Wind Dir Waves Ship Positions

Mestre Horacio

Last reported at 2018-Jun-22 22:44 UTC. Time now 2018-Jun-23 17:55 UTC.
Position N 39°14' W 009°27'.

Type: Fishing. MMSI: 263402370.

Date/timePositionNaut miles runAvg speedWind from/ knotsBaromVisibWave heightAir tempDewpointWater temp
2018-Jun-22 22:44N 39°14' W 009°27'2 8.6
2018-Jun-22 22:30N 39°12' W 009°28'4 8.6
2018-Jun-22 22:00N 39°08' W 009°30'4 8.4
2018-Jun-22 21:30N 39°04' W 009°31'0 0.2
2018-Jun-22 20:59N 39°04' W 009°31'0 0.3
2018-Jun-22 20:30N 39°04' W 009°32'0 0.9
2018-Jun-22 20:00N 39°04' W 009°32'0 0.2
2018-Jun-22 19:30N 39°04' W 009°32'4 7.5
2018-Jun-22 19:00N 39°08' W 009°32'3 5.2
2018-Jun-22 18:30N 39°09' W 009°35'2 4.4
2018-Jun-22 18:00N 39°09' W 009°38'3 6.2
2018-Jun-22 17:29N 39°11' W 009°36'3 7.0
2018-Jun-22 17:00N 39°15' W 009°36'5 2.6
2018-Jun-22 15:10N 39°12' W 009°31'1 7.4
2018-Jun-22 15:00N 39°12' W 009°29'1 1.6
2018-Jun-22 14:28N 39°12' W 009°28'4 0.3
2018-Jun-21 22:15N 39°16' W 009°28'2 8.5
2018-Jun-21 22:01N 39°15' W 009°30'3 4.6
2018-Jun-21 21:25N 39°13' W 009°32'0 0.1
2018-Jun-21 21:00N 39°13' W 009°32'0 0.2
2018-Jun-21 20:31N 39°13' W 009°32'3 5.1
2018-Jun-21 19:55N 39°15' W 009°34'1 1.7
2018-Jun-21 19:30N 39°16' W 009°33'2 2.7
2018-Jun-21 18:54N 39°14' W 009°34'0 0.8
2018-Jun-21 18:31N 39°14' W 009°34'0 0.5
2018-Jun-21 17:59N 39°14' W 009°33'4 7.5
2018-Jun-21 17:31N 39°18' W 009°32'2 3.7
2018-Jun-21 16:51N 39°20' W 009°32'12 0.3
2018-Jun-20 04:29N 39°10' W 009°24'3 6.1
2018-Jun-20 04:00N 39°12' W 009°25'0 0.0
2018-Jun-19 14:57N 39°13' W 009°26'2 0.2
2018-Jun-19 05:44N 39°15' W 009°25'2 7.8
2018-Jun-19 05:25N 39°12' W 009°25'0 0.1
2018-Jun-19 05:00N 39°12' W 009°25'0 0.2
2018-Jun-19 04:23N 39°12' W 009°25'5 0.5
2018-Jun-18 16:51N 39°17' W 009°28'0 0.4
2018-Jun-18 16:29N 39°17' W 009°28'0 0.1
2018-Jun-18 15:24N 39°17' W 009°28'  
2018-Jun-14 17:07N 39°11' W 009°24'0 0.4
2018-Jun-14 16:59N 39°11' W 009°24'4 4.9
2018-Jun-14 16:08N 39°16' W 009°24'0 0.6
2018-Jun-14 16:00N 39°16' W 009°24'4 0.2
2018-Jun-13 19:03N 39°12' W 009°24'0 6.8
2018-Jun-13 19:00N 39°12' W 009°24'0 0.5
2018-Jun-13 18:30N 39°12' W 009°25'1 0.1
2018-Jun-13 04:40N 39°12' W 009°23'1 3.1
2018-Jun-13 04:30N 39°12' W 009°24'  
Track history (hours):
 
Tides and Currents Weather Stations Pressure Air Temp Water Temp Dewpoint Dewpoint Depression Visibility Wind Speed Wind Dir Waves Ship Positions

Mestre Horacio

Last reported at 2018-Jun-22 22:44 UTC. Time now 2018-Jun-23 17:55 UTC.
Position N 39°14' W 009°27'.

Type: Fishing. MMSI: 263402370.

Date/timePositionNaut miles runAvg speedWind from/ knotsBaromVisibWave heightAir tempDewpointWater temp
2018-Jun-22 22:44N 39°14' W 009°27'2 8.6
2018-Jun-22 22:30N 39°12' W 009°28'4 8.6
2018-Jun-22 22:00N 39°08' W 009°30'4 8.4
2018-Jun-22 21:30N 39°04' W 009°31'0 0.2
2018-Jun-22 20:59N 39°04' W 009°31'0 0.3
2018-Jun-22 20:30N 39°04' W 009°32'0 0.9
2018-Jun-22 20:00N 39°04' W 009°32'0 0.2
2018-Jun-22 19:30N 39°04' W 009°32'4 7.5
2018-Jun-22 19:00N 39°08' W 009°32'3 5.2
2018-Jun-22 18:30N 39°09' W 009°35'2 4.4
2018-Jun-22 18:00N 39°09' W 009°38'3 6.2
2018-Jun-22 17:29N 39°11' W 009°36'3 7.0
2018-Jun-22 17:00N 39°15' W 009°36'5 2.6
2018-Jun-22 15:10N 39°12' W 009°31'1 7.4
2018-Jun-22 15:00N 39°12' W 009°29'1 1.6
2018-Jun-22 14:28N 39°12' W 009°28'4 0.3
2018-Jun-21 22:15N 39°16' W 009°28'2 8.5
2018-Jun-21 22:01N 39°15' W 009°30'3 4.6
2018-Jun-21 21:25N 39°13' W 009°32'0 0.1
2018-Jun-21 21:00N 39°13' W 009°32'0 0.2
2018-Jun-21 20:31N 39°13' W 009°32'3 5.1
2018-Jun-21 19:55N 39°15' W 009°34'1 1.7
2018-Jun-21 19:30N 39°16' W 009°33'2 2.7
2018-Jun-21 18:54N 39°14' W 009°34'0 0.8
2018-Jun-21 18:31N 39°14' W 009°34'0 0.5
2018-Jun-21 17:59N 39°14' W 009°33'4 7.5
2018-Jun-21 17:31N 39°18' W 009°32'2 3.7
2018-Jun-21 16:51N 39°20' W 009°32'12 0.3
2018-Jun-20 04:29N 39°10' W 009°24'3 6.1
2018-Jun-20 04:00N 39°12' W 009°25'0 0.0
2018-Jun-19 14:57N 39°13' W 009°26'2 0.2
2018-Jun-19 05:44N 39°15' W 009°25'2 7.8
2018-Jun-19 05:25N 39°12' W 009°25'0 0.1
2018-Jun-19 05:00N 39°12' W 009°25'0 0.2
2018-Jun-19 04:23N 39°12' W 009°25'5 0.5
2018-Jun-18 16:51N 39°17' W 009°28'0 0.4
2018-Jun-18 16:29N 39°17' W 009°28'0 0.1
2018-Jun-18 15:24N 39°17' W 009°28'  
2018-Jun-14 17:07N 39°11' W 009°24'0 0.4
2018-Jun-14 16:59N 39°11' W 009°24'4 4.9
2018-Jun-14 16:08N 39°16' W 009°24'0 0.6
2018-Jun-14 16:00N 39°16' W 009°24'4 0.2
2018-Jun-13 19:03N 39°12' W 009°24'0 6.8
2018-Jun-13 19:00N 39°12' W 009°24'0 0.5
2018-Jun-13 18:30N 39°12' W 009°25'1 0.1
2018-Jun-13 04:40N 39°12' W 009°23'1 3.1
2018-Jun-13 04:30N 39°12' W 009°24'  

Dump ship's entire track history